sensor_id;sensor_type;location;lat;lon;timestamp;P1;durP1;ratioP1;P2;durP2;ratioP2
78610;SDS011;67932;50.474;4.436;2023-07-29T00:00:58;2.85;;;1.40;;
78610;SDS011;67932;50.474;4.436;2023-07-29T00:03:25;4.30;;;1.30;;
78610;SDS011;67932;50.474;4.436;2023-07-29T00:05:51;2.72;;;1.75;;
78610;SDS011;67932;50.474;4.436;2023-07-29T00:08:18;2.03;;;1.48;;
78610;SDS011;67932;50.474;4.436;2023-07-29T00:10:44;3.20;;;1.60;;
78610;SDS011;67932;50.474;4.436;2023-07-29T00:13:10;3.22;;;1.48;;
78610;SDS011;67932;50.474;4.436;2023-07-29T00:15:36;2.05;;;1.60;;
78610;SDS011;67932;50.474;4.436;2023-07-29T00:18:02;2.17;;;1.40;;
78610;SDS011;67932;50.474;4.436;2023-07-29T00:20:29;2.70;;;1.50;;
78610;SDS011;67932;50.474;4.436;2023-07-29T00:22:55;3.30;;;2.08;;
78610;SDS011;67932;50.474;4.436;2023-07-29T00:25:23;2.00;;;1.23;;
78610;SDS011;67932;50.474;4.436;2023-07-29T00:27:49;4.95;;;1.92;;
78610;SDS011;67932;50.474;4.436;2023-07-29T00:30:15;2.30;;;1.30;;
78610;SDS011;67932;50.474;4.436;2023-07-29T00:32:41;2.10;;;1.30;;
78610;SDS011;67932;50.474;4.436;2023-07-29T00:35:08;3.90;;;1.20;;
78610;SDS011;67932;50.474;4.436;2023-07-29T00:37:34;1.98;;;1.63;;
78610;SDS011;67932;50.474;4.436;2023-07-29T00:40:02;3.08;;;2.03;;
78610;SDS011;67932;50.474;4.436;2023-07-29T00:42:34;1.92;;;0.95;;
78610;SDS011;67932;50.474;4.436;2023-07-29T00:45:00;3.05;;;1.30;;
78610;SDS011;67932;50.474;4.436;2023-07-29T00:47:27;2.67;;;1.35;;
78610;SDS011;67932;50.474;4.436;2023-07-29T00:49:53;1.83;;;1.10;;
78610;SDS011;67932;50.474;4.436;2023-07-29T00:52:19;2.15;;;1.50;;
78610;SDS011;67932;50.474;4.436;2023-07-29T00:54:46;3.03;;;1.33;;
78610;SDS011;67932;50.474;4.436;2023-07-29T00:57:12;2.13;;;1.33;;
78610;SDS011;67932;50.474;4.436;2023-07-29T00:59:40;1.50;;;1.05;;
78610;SDS011;67932;50.474;4.436;2023-07-29T01:02:06;3.28;;;1.50;;
78610;SDS011;67932;50.474;4.436;2023-07-29T01:04:33;5.00;;;2.00;;
78610;SDS011;67932;50.474;4.436;2023-07-29T01:10:02;2.38;;;1.20;;
78610;SDS011;67932;50.474;4.436;2023-07-29T01:15:24;2.08;;;1.02;;
78610;SDS011;67932;50.474;4.436;2023-07-29T01:18:08;2.75;;;1.00;;
78610;SDS011;67932;50.474;4.436;2023-07-29T01:20:42;1.45;;;0.93;;
78610;SDS011;67932;50.474;4.436;2023-07-29T01:23:10;2.60;;;1.00;;
78610;SDS011;67932;50.474;4.436;2023-07-29T01:25:37;1.58;;;0.90;;
78610;SDS011;67932;50.474;4.436;2023-07-29T01:28:03;2.03;;;1.10;;
78610;SDS011;67932;50.474;4.436;2023-07-29T01:30:31;3.38;;;1.17;;
78610;SDS011;67932;50.474;4.436;2023-07-29T01:36:03;2.25;;;1.02;;
78610;SDS011;67932;50.474;4.436;2023-07-29T01:38:36;9.52;;;2.40;;
78610;SDS011;67932;50.474;4.436;2023-07-29T01:41:07;3.03;;;1.02;;
78610;SDS011;67932;50.474;4.436;2023-07-29T01:43:34;1.63;;;1.20;;
78610;SDS011;67932;50.474;4.436;2023-07-29T01:46:07;2.78;;;1.10;;
78610;SDS011;67932;50.474;4.436;2023-07-29T01:48:36;5.18;;;2.03;;
78610;SDS011;67932;50.474;4.436;2023-07-29T01:51:03;1.55;;;0.90;;
78610;SDS011;67932;50.474;4.436;2023-07-29T01:53:30;2.22;;;1.10;;
78610;SDS011;67932;50.474;4.436;2023-07-29T01:55:56;2.88;;;1.13;;
78610;SDS011;67932;50.474;4.436;2023-07-29T01:58:22;1.63;;;0.90;;
78610;SDS011;67932;50.474;4.436;2023-07-29T02:00:49;3.05;;;1.10;;
78610;SDS011;67932;50.474;4.436;2023-07-29T02:03:15;2.70;;;1.05;;
78610;SDS011;67932;50.474;4.436;2023-07-29T02:05:41;4.05;;;1.42;;
78610;SDS011;67932;50.474;4.436;2023-07-29T02:08:09;2.35;;;1.02;;
78610;SDS011;67932;50.474;4.436;2023-07-29T02:10:35;3.53;;;1.15;;
78610;SDS011;67932;50.474;4.436;2023-07-29T02:13:02;1.85;;;1.10;;
78610;SDS011;67932;50.474;4.436;2023-07-29T02:15:29;4.25;;;1.30;;
78610;SDS011;67932;50.474;4.436;2023-07-29T02:17:55;3.63;;;1.02;;
78610;SDS011;67932;50.474;4.436;2023-07-29T02:20:21;4.40;;;1.30;;
78610;SDS011;67932;50.474;4.436;2023-07-29T02:22:48;1.85;;;1.00;;
78610;SDS011;67932;50.474;4.436;2023-07-29T02:25:14;2.17;;;1.33;;
78610;SDS011;67932;50.474;4.436;2023-07-29T02:27:40;1.63;;;1.13;;
78610;SDS011;67932;50.474;4.436;2023-07-29T02:30:07;3.03;;;1.50;;
78610;SDS011;67932;50.474;4.436;2023-07-29T02:32:34;3.17;;;1.30;;
78610;SDS011;67932;50.474;4.436;2023-07-29T02:35:01;4.45;;;1.20;;
78610;SDS011;67932;50.474;4.436;2023-07-29T02:37:27;1.98;;;1.30;;
78610;SDS011;67932;50.474;4.436;2023-07-29T02:39:53;2.42;;;1.40;;
78610;SDS011;67932;50.474;4.436;2023-07-29T02:42:19;2.25;;;1.10;;
78610;SDS011;67932;50.474;4.436;2023-07-29T02:44:46;2.80;;;1.17;;
78610;SDS011;67932;50.474;4.436;2023-07-29T02:47:13;5.60;;;1.17;;
78610;SDS011;67932;50.474;4.436;2023-07-29T02:49:39;2.45;;;0.93;;
78610;SDS011;67932;50.474;4.436;2023-07-29T02:52:05;2.70;;;1.30;;
78610;SDS011;67932;50.474;4.436;2023-07-29T02:54:31;4.55;;;1.33;;
78610;SDS011;67932;50.474;4.436;2023-07-29T02:56:58;1.60;;;1.10;;
78610;SDS011;67932;50.474;4.436;2023-07-29T02:59:24;4.43;;;1.10;;
78610;SDS011;67932;50.474;4.436;2023-07-29T03:01:50;2.90;;;0.98;;
78610;SDS011;67932;50.474;4.436;2023-07-29T03:04:18;3.33;;;1.25;;
78610;SDS011;67932;50.474;4.436;2023-07-29T03:06:44;2.55;;;1.20;;
78610;SDS011;67932;50.474;4.436;2023-07-29T03:09:13;2.20;;;1.02;;
78610;SDS011;67932;50.474;4.436;2023-07-29T03:11:39;2.65;;;1.20;;
78610;SDS011;67932;50.474;4.436;2023-07-29T03:14:05;2.60;;;1.10;;
78610;SDS011;67932;50.474;4.436;2023-07-29T03:16:31;1.67;;;0.90;;
78610;SDS011;67932;50.474;4.436;2023-07-29T03:18:58;2.97;;;0.80;;
78610;SDS011;67932;50.474;4.436;2023-07-29T03:21:25;3.78;;;1.15;;
78610;SDS011;67932;50.474;4.436;2023-07-29T03:23:51;2.38;;;0.98;;
78610;SDS011;67932;50.474;4.436;2023-07-29T03:26:17;4.07;;;1.08;;
78610;SDS011;67932;50.474;4.436;2023-07-29T03:28:44;3.35;;;1.33;;
78610;SDS011;67932;50.474;4.436;2023-07-29T03:31:10;4.05;;;1.67;;
78610;SDS011;67932;50.474;4.436;2023-07-29T03:33:37;4.05;;;1.60;;
78610;SDS011;67932;50.474;4.436;2023-07-29T03:36:03;4.60;;;1.63;;
78610;SDS011;67932;50.474;4.436;2023-07-29T03:38:30;5.75;;;1.83;;
78610;SDS011;67932;50.474;4.436;2023-07-29T03:40:58;6.10;;;2.00;;
78610;SDS011;67932;50.474;4.436;2023-07-29T03:43:24;4.22;;;1.45;;
78610;SDS011;67932;50.474;4.436;2023-07-29T03:45:50;5.10;;;1.42;;
78610;SDS011;67932;50.474;4.436;2023-07-29T03:48:16;7.32;;;2.65;;
78610;SDS011;67932;50.474;4.436;2023-07-29T03:50:43;3.80;;;1.30;;
78610;SDS011;67932;50.474;4.436;2023-07-29T03:53:09;2.97;;;1.27;;
78610;SDS011;67932;50.474;4.436;2023-07-29T03:55:35;5.40;;;1.48;;
78610;SDS011;67932;50.474;4.436;2023-07-29T03:58:01;3.95;;;1.52;;
78610;SDS011;67932;50.474;4.436;2023-07-29T04:00:28;4.85;;;1.35;;
78610;SDS011;67932;50.474;4.436;2023-07-29T04:02:54;5.30;;;1.42;;
78610;SDS011;67932;50.474;4.436;2023-07-29T04:05:20;2.78;;;1.40;;
78610;SDS011;67932;50.474;4.436;2023-07-29T04:07:47;4.45;;;1.30;;
78610;SDS011;67932;50.474;4.436;2023-07-29T04:10:13;2.20;;;1.20;;
78610;SDS011;67932;50.474;4.436;2023-07-29T04:12:39;4.03;;;1.00;;
78610;SDS011;67932;50.474;4.436;2023-07-29T04:15:06;2.83;;;1.38;;
78610;SDS011;67932;50.474;4.436;2023-07-29T04:17:32;2.92;;;1.30;;
78610;SDS011;67932;50.474;4.436;2023-07-29T04:19:59;2.42;;;1.27;;
78610;SDS011;67932;50.474;4.436;2023-07-29T04:22:25;4.30;;;1.25;;
78610;SDS011;67932;50.474;4.436;2023-07-29T04:24:51;2.80;;;1.17;;
78610;SDS011;67932;50.474;4.436;2023-07-29T04:27:17;2.20;;;1.23;;
78610;SDS011;67932;50.474;4.436;2023-07-29T04:29:44;2.92;;;1.30;;
78610;SDS011;67932;50.474;4.436;2023-07-29T04:32:10;2.10;;;1.08;;
78610;SDS011;67932;50.474;4.436;2023-07-29T04:34:36;2.90;;;1.10;;
78610;SDS011;67932;50.474;4.436;2023-07-29T04:37:02;2.60;;;1.17;;
78610;SDS011;67932;50.474;4.436;2023-07-29T04:39:29;2.22;;;1.10;;
78610;SDS011;67932;50.474;4.436;2023-07-29T04:41:55;2.92;;;1.30;;
78610;SDS011;67932;50.474;4.436;2023-07-29T04:44:22;2.08;;;1.13;;
78610;SDS011;67932;50.474;4.436;2023-07-29T04:46:48;4.03;;;1.02;;
78610;SDS011;67932;50.474;4.436;2023-07-29T04:49:14;4.25;;;1.50;;
78610;SDS011;67932;50.474;4.436;2023-07-29T04:51:41;2.50;;;1.40;;
78610;SDS011;67932;50.474;4.436;2023-07-29T04:54:07;2.10;;;1.02;;
78610;SDS011;67932;50.474;4.436;2023-07-29T04:56:33;1.70;;;1.10;;
78610;SDS011;67932;50.474;4.436;2023-07-29T04:58:59;5.18;;;1.15;;
78610;SDS011;67932;50.474;4.436;2023-07-29T05:01:25;2.40;;;1.60;;
78610;SDS011;67932;50.474;4.436;2023-07-29T05:03:52;2.90;;;0.85;;
78610;SDS011;67932;50.474;4.436;2023-07-29T05:06:18;3.30;;;1.20;;
78610;SDS011;67932;50.474;4.436;2023-07-29T05:08:44;2.10;;;0.80;;
78610;SDS011;67932;50.474;4.436;2023-07-29T05:11:10;2.17;;;1.38;;
78610;SDS011;67932;50.474;4.436;2023-07-29T05:13:37;2.88;;;1.10;;
78610;SDS011;67932;50.474;4.436;2023-07-29T05:16:04;3.53;;;1.30;;
78610;SDS011;67932;50.474;4.436;2023-07-29T05:18:31;1.90;;;1.10;;
78610;SDS011;67932;50.474;4.436;2023-07-29T05:20:57;2.95;;;1.27;;
78610;SDS011;67932;50.474;4.436;2023-07-29T05:23:24;2.20;;;1.27;;
78610;SDS011;67932;50.474;4.436;2023-07-29T05:25:50;4.25;;;1.05;;
78610;SDS011;67932;50.474;4.436;2023-07-29T05:28:16;1.40;;;0.90;;
78610;SDS011;67932;50.474;4.436;2023-07-29T05:30:43;2.80;;;1.40;;
78610;SDS011;67932;50.474;4.436;2023-07-29T05:33:09;2.10;;;1.15;;
78610;SDS011;67932;50.474;4.436;2023-07-29T05:35:36;6.90;;;1.30;;
78610;SDS011;67932;50.474;4.436;2023-07-29T05:38:02;1.60;;;1.00;;
78610;SDS011;67932;50.474;4.436;2023-07-29T05:40:31;1.98;;;1.05;;
78610;SDS011;67932;50.474;4.436;2023-07-29T05:42:57;2.47;;;1.27;;
78610;SDS011;67932;50.474;4.436;2023-07-29T05:45:23;2.95;;;1.10;;
78610;SDS011;67932;50.474;4.436;2023-07-29T05:47:50;3.92;;;1.50;;
78610;SDS011;67932;50.474;4.436;2023-07-29T05:50:16;8.30;;;3.50;;
78610;SDS011;67932;50.474;4.436;2023-07-29T05:52:42;6.40;;;1.60;;
78610;SDS011;67932;50.474;4.436;2023-07-29T05:55:08;6.75;;;2.30;;
78610;SDS011;67932;50.474;4.436;2023-07-29T05:57:35;7.65;;;1.52;;
78610;SDS011;67932;50.474;4.436;2023-07-29T06:00:01;3.00;;;1.20;;
78610;SDS011;67932;50.474;4.436;2023-07-29T06:02:27;2.65;;;1.13;;
78610;SDS011;67932;50.474;4.436;2023-07-29T06:04:54;4.20;;;1.35;;
78610;SDS011;67932;50.474;4.436;2023-07-29T06:07:20;3.75;;;1.20;;
78610;SDS011;67932;50.474;4.436;2023-07-29T06:09:46;4.38;;;0.93;;
78610;SDS011;67932;50.474;4.436;2023-07-29T06:12:12;3.72;;;1.20;;
78610;SDS011;67932;50.474;4.436;2023-07-29T06:14:39;5.65;;;1.15;;
78610;SDS011;67932;50.474;4.436;2023-07-29T06:17:05;2.33;;;1.20;;
78610;SDS011;67932;50.474;4.436;2023-07-29T06:19:32;2.75;;;1.10;;
78610;SDS011;67932;50.474;4.436;2023-07-29T06:21:58;2.60;;;1.17;;
78610;SDS011;67932;50.474;4.436;2023-07-29T06:24:26;4.40;;;1.33;;
78610;SDS011;67932;50.474;4.436;2023-07-29T06:26:52;2.08;;;1.00;;
78610;SDS011;67932;50.474;4.436;2023-07-29T06:29:18;3.15;;;1.02;;
78610;SDS011;67932;50.474;4.436;2023-07-29T06:31:45;1.92;;;1.00;;
78610;SDS011;67932;50.474;4.436;2023-07-29T06:34:12;1.63;;;1.15;;
78610;SDS011;67932;50.474;4.436;2023-07-29T06:36:38;2.50;;;0.93;;
78610;SDS011;67932;50.474;4.436;2023-07-29T06:39:04;1.65;;;0.98;;
78610;SDS011;67932;50.474;4.436;2023-07-29T06:41:30;3.70;;;1.17;;
78610;SDS011;67932;50.474;4.436;2023-07-29T06:43:56;2.40;;;1.02;;
78610;SDS011;67932;50.474;4.436;2023-07-29T06:46:23;2.95;;;1.00;;
78610;SDS011;67932;50.474;4.436;2023-07-29T06:48:49;1.70;;;1.00;;
78610;SDS011;67932;50.474;4.436;2023-07-29T06:51:15;2.22;;;0.95;;
78610;SDS011;67932;50.474;4.436;2023-07-29T06:53:41;2.28;;;0.88;;
78610;SDS011;67932;50.474;4.436;2023-07-29T06:56:08;3.20;;;1.13;;
78610;SDS011;67932;50.474;4.436;2023-07-29T06:58:34;1.92;;;1.08;;
78610;SDS011;67932;50.474;4.436;2023-07-29T07:01:01;2.33;;;1.00;;
78610;SDS011;67932;50.474;4.436;2023-07-29T07:03:28;2.17;;;1.13;;
78610;SDS011;67932;50.474;4.436;2023-07-29T07:05:54;4.20;;;1.98;;
78610;SDS011;67932;50.474;4.436;2023-07-29T07:08:20;1.52;;;0.90;;
78610;SDS011;67932;50.474;4.436;2023-07-29T07:10:47;1.98;;;0.70;;
78610;SDS011;67932;50.474;4.436;2023-07-29T07:13:13;1.75;;;0.65;;
78610;SDS011;67932;50.474;4.436;2023-07-29T07:15:39;2.55;;;0.80;;
78610;SDS011;67932;50.474;4.436;2023-07-29T07:18:06;2.53;;;0.70;;
78610;SDS011;67932;50.474;4.436;2023-07-29T07:20:32;2.53;;;0.90;;
78610;SDS011;67932;50.474;4.436;2023-07-29T07:22:59;1.38;;;1.00;;
78610;SDS011;67932;50.474;4.436;2023-07-29T07:25:25;2.42;;;0.77;;
78610;SDS011;67932;50.474;4.436;2023-07-29T07:27:52;1.50;;;0.90;;
78610;SDS011;67932;50.474;4.436;2023-07-29T07:30:18;2.38;;;1.00;;
78610;SDS011;67932;50.474;4.436;2023-07-29T07:32:44;1.90;;;0.50;;
78610;SDS011;67932;50.474;4.436;2023-07-29T07:35:10;0.95;;;0.73;;
78610;SDS011;67932;50.474;4.436;2023-07-29T07:37:37;1.75;;;0.90;;
78610;SDS011;67932;50.474;4.436;2023-07-29T07:40:03;1.25;;;0.90;;
78610;SDS011;67932;50.474;4.436;2023-07-29T07:42:30;1.20;;;0.60;;
78610;SDS011;67932;50.474;4.436;2023-07-29T07:44:56;1.90;;;0.70;;
78610;SDS011;67932;50.474;4.436;2023-07-29T07:47:22;3.35;;;0.70;;
78610;SDS011;67932;50.474;4.436;2023-07-29T07:49:49;1.88;;;0.77;;
78610;SDS011;67932;50.474;4.436;2023-07-29T07:52:15;1.45;;;0.68;;
78610;SDS011;67932;50.474;4.436;2023-07-29T07:54:41;0.80;;;0.55;;
78610;SDS011;67932;50.474;4.436;2023-07-29T07:57:07;1.55;;;0.82;;
78610;SDS011;67932;50.474;4.436;2023-07-29T07:59:34;1.00;;;0.63;;
78610;SDS011;67932;50.474;4.436;2023-07-29T08:02:00;2.05;;;0.80;;
78610;SDS011;67932;50.474;4.436;2023-07-29T08:04:26;4.25;;;0.90;;
78610;SDS011;67932;50.474;4.436;2023-07-29T08:06:52;1.25;;;0.75;;
78610;SDS011;67932;50.474;4.436;2023-07-29T08:09:19;0.98;;;0.70;;
78610;SDS011;67932;50.474;4.436;2023-07-29T08:11:45;2.40;;;0.80;;
78610;SDS011;67932;50.474;4.436;2023-07-29T08:14:11;1.50;;;0.68;;
78610;SDS011;67932;50.474;4.436;2023-07-29T08:16:37;1.25;;;0.88;;
78610;SDS011;67932;50.474;4.436;2023-07-29T08:19:03;2.60;;;1.58;;
78610;SDS011;67932;50.474;4.436;2023-07-29T08:21:30;1.23;;;0.82;;
78610;SDS011;67932;50.474;4.436;2023-07-29T08:23:57;2.90;;;1.02;;
78610;SDS011;67932;50.474;4.436;2023-07-29T08:26:23;2.08;;;0.82;;
78610;SDS011;67932;50.474;4.436;2023-07-29T08:28:50;3.33;;;1.00;;
78610;SDS011;67932;50.474;4.436;2023-07-29T08:31:16;2.40;;;0.98;;
78610;SDS011;67932;50.474;4.436;2023-07-29T08:33:42;1.23;;;0.73;;
78610;SDS011;67932;50.474;4.436;2023-07-29T08:36:08;1.38;;;0.90;;
78610;SDS011;67932;50.474;4.436;2023-07-29T08:38:35;2.38;;;1.05;;
78610;SDS011;67932;50.474;4.436;2023-07-29T08:43:31;2.63;;;0.90;;
78610;SDS011;67932;50.474;4.436;2023-07-29T08:45:58;2.08;;;0.80;;
78610;SDS011;67932;50.474;4.436;2023-07-29T08:48:43;2.92;;;0.82;;
78610;SDS011;67932;50.474;4.436;2023-07-29T08:51:10;1.75;;;0.80;;
78610;SDS011;67932;50.474;4.436;2023-07-29T08:53:38;1.48;;;0.90;;
78610;SDS011;67932;50.474;4.436;2023-07-29T08:56:05;2.72;;;1.15;;
78610;SDS011;67932;50.474;4.436;2023-07-29T08:58:32;2.65;;;1.67;;
78610;SDS011;67932;50.474;4.436;2023-07-29T09:00:58;1.38;;;0.82;;
78610;SDS011;67932;50.474;4.436;2023-07-29T09:03:25;1.52;;;0.90;;
78610;SDS011;67932;50.474;4.436;2023-07-29T09:05:51;1.40;;;0.85;;
78610;SDS011;67932;50.474;4.436;2023-07-29T09:08:20;2.00;;;0.80;;
78610;SDS011;67932;50.474;4.436;2023-07-29T09:10:48;2.38;;;0.95;;
78610;SDS011;67932;50.474;4.436;2023-07-29T09:13:14;1.83;;;0.90;;
78610;SDS011;67932;50.474;4.436;2023-07-29T09:15:40;1.33;;;0.73;;
78610;SDS011;67932;50.474;4.436;2023-07-29T09:18:17;2.15;;;0.93;;
78610;SDS011;67932;50.474;4.436;2023-07-29T09:20:48;1.92;;;0.70;;
78610;SDS011;67932;50.474;4.436;2023-07-29T09:23:15;1.33;;;0.90;;
78610;SDS011;67932;50.474;4.436;2023-07-29T09:25:42;1.95;;;0.73;;
78610;SDS011;67932;50.474;4.436;2023-07-29T09:28:12;1.52;;;0.90;;
78610;SDS011;67932;50.474;4.436;2023-07-29T09:30:41;1.38;;;1.02;;
78610;SDS011;67932;50.474;4.436;2023-07-29T09:33:09;0.95;;;0.70;;
78610;SDS011;67932;50.474;4.436;2023-07-29T09:35:38;2.10;;;1.08;;
78610;SDS011;67932;50.474;4.436;2023-07-29T09:38:04;1.90;;;1.02;;
78610;SDS011;67932;50.474;4.436;2023-07-29T09:40:38;9.07;;;1.23;;
78610;SDS011;67932;50.474;4.436;2023-07-29T09:43:05;1.42;;;0.85;;
78610;SDS011;67932;50.474;4.436;2023-07-29T09:45:33;1.95;;;0.82;;
78610;SDS011;67932;50.474;4.436;2023-07-29T09:48:01;4.65;;;1.10;;
78610;SDS011;67932;50.474;4.436;2023-07-29T09:50:30;1.27;;;0.90;;
78610;SDS011;67932;50.474;4.436;2023-07-29T09:52:56;1.70;;;0.90;;
78610;SDS011;67932;50.474;4.436;2023-07-29T09:55:27;2.05;;;1.17;;
78610;SDS011;67932;50.474;4.436;2023-07-29T09:57:57;1.80;;;0.98;;
78610;SDS011;67932;50.474;4.436;2023-07-29T10:00:29;2.20;;;1.00;;
78610;SDS011;67932;50.474;4.436;2023-07-29T10:02:56;1.92;;;0.90;;
78610;SDS011;67932;50.474;4.436;2023-07-29T10:05:27;1.80;;;1.20;;
78610;SDS011;67932;50.474;4.436;2023-07-29T10:07:55;2.72;;;1.30;;
78610;SDS011;67932;50.474;4.436;2023-07-29T10:10:22;3.33;;;1.50;;
78610;SDS011;67932;50.474;4.436;2023-07-29T10:12:49;2.25;;;1.58;;
78610;SDS011;67932;50.474;4.436;2023-07-29T10:15:17;2.22;;;1.30;;
78610;SDS011;67932;50.474;4.436;2023-07-29T10:17:43;1.45;;;1.17;;
78610;SDS011;67932;50.474;4.436;2023-07-29T10:20:11;1.48;;;1.08;;
78610;SDS011;67932;50.474;4.436;2023-07-29T10:22:39;2.03;;;1.63;;
78610;SDS011;67932;50.474;4.436;2023-07-29T10:25:07;2.50;;;1.13;;
78610;SDS011;67932;50.474;4.436;2023-07-29T10:27:47;2.40;;;1.38;;
78610;SDS011;67932;50.474;4.436;2023-07-29T10:30:30;1.92;;;1.13;;
78610;SDS011;67932;50.474;4.436;2023-07-29T10:32:58;1.40;;;1.27;;
78610;SDS011;67932;50.474;4.436;2023-07-29T10:35:29;2.17;;;1.60;;
78610;SDS011;67932;50.474;4.436;2023-07-29T10:37:58;3.28;;;1.50;;
78610;SDS011;67932;50.474;4.436;2023-07-29T10:40:26;1.70;;;1.30;;
78610;SDS011;67932;50.474;4.436;2023-07-29T10:43:12;1.45;;;1.20;;
78610;SDS011;67932;50.474;4.436;2023-07-29T10:45:43;6.18;;;2.45;;
78610;SDS011;67932;50.474;4.436;2023-07-29T10:48:13;8.18;;;2.80;;
78610;SDS011;67932;50.474;4.436;2023-07-29T10:53:56;4.30;;;3.38;;
78610;SDS011;67932;50.474;4.436;2023-07-29T10:56:27;4.30;;;2.78;;
78610;SDS011;67932;50.474;4.436;2023-07-29T11:01:42;3.83;;;3.10;;
78610;SDS011;67932;50.474;4.436;2023-07-29T11:12:33;6.88;;;4.18;;
78610;SDS011;67932;50.474;4.436;2023-07-29T11:17:42;6.35;;;4.90;;
78610;SDS011;67932;50.474;4.436;2023-07-29T11:20:11;6.20;;;4.50;;
78610;SDS011;67932;50.474;4.436;2023-07-29T11:22:38;5.75;;;4.45;;
78610;SDS011;67932;50.474;4.436;2023-07-29T11:25:05;5.38;;;4.25;;
78610;SDS011;67932;50.474;4.436;2023-07-29T11:27:34;6.07;;;3.80;;
78610;SDS011;67932;50.474;4.436;2023-07-29T11:30:02;6.82;;;4.40;;
78610;SDS011;67932;50.474;4.436;2023-07-29T11:32:30;10.00;;;5.25;;
78610;SDS011;67932;50.474;4.436;2023-07-29T11:35:16;7.78;;;4.40;;
78610;SDS011;67932;50.474;4.436;2023-07-29T11:37:53;6.35;;;4.00;;
78610;SDS011;67932;50.474;4.436;2023-07-29T11:40:21;4.90;;;3.97;;
78610;SDS011;67932;50.474;4.436;2023-07-29T11:42:49;6.13;;;4.28;;
78610;SDS011;67932;50.474;4.436;2023-07-29T11:45:17;9.63;;;4.00;;
78610;SDS011;67932;50.474;4.436;2023-07-29T11:47:44;6.70;;;3.45;;
78610;SDS011;67932;50.474;4.436;2023-07-29T11:50:11;5.55;;;4.32;;
78610;SDS011;67932;50.474;4.436;2023-07-29T11:52:42;3.25;;;2.90;;
78610;SDS011;67932;50.474;4.436;2023-07-29T11:55:10;3.85;;;3.05;;
78610;SDS011;67932;50.474;4.436;2023-07-29T11:57:38;2.67;;;2.10;;
78610;SDS011;67932;50.474;4.436;2023-07-29T12:00:07;4.53;;;1.98;;
78610;SDS011;67932;50.474;4.436;2023-07-29T12:02:38;2.70;;;1.95;;
78610;SDS011;67932;50.474;4.436;2023-07-29T12:05:07;2.15;;;1.90;;
78610;SDS011;67932;50.474;4.436;2023-07-29T12:07:35;2.35;;;1.60;;
78610;SDS011;67932;50.474;4.436;2023-07-29T12:10:03;2.30;;;1.80;;
78610;SDS011;67932;50.474;4.436;2023-07-29T12:12:30;1.80;;;1.63;;
78610;SDS011;67932;50.474;4.436;2023-07-29T12:14:56;2.63;;;1.40;;
78610;SDS011;67932;50.474;4.436;2023-07-29T12:17:23;2.38;;;1.63;;
78610;SDS011;67932;50.474;4.436;2023-07-29T12:19:49;2.90;;;1.98;;
78610;SDS011;67932;50.474;4.436;2023-07-29T12:22:19;2.25;;;1.40;;
78610;SDS011;67932;50.474;4.436;2023-07-29T12:24:45;1.65;;;1.33;;
78610;SDS011;67932;50.474;4.436;2023-07-29T12:27:12;2.10;;;1.30;;
78610;SDS011;67932;50.474;4.436;2023-07-29T12:29:40;1.65;;;1.00;;
78610;SDS011;67932;50.474;4.436;2023-07-29T12:32:07;3.03;;;1.05;;
78610;SDS011;67932;50.474;4.436;2023-07-29T12:34:34;3.03;;;0.80;;
78610;SDS011;67932;50.474;4.436;2023-07-29T12:37:03;1.40;;;1.10;;
78610;SDS011;67932;50.474;4.436;2023-07-29T12:39:30;1.25;;;0.80;;
78610;SDS011;67932;50.474;4.436;2023-07-29T12:42:00;0.93;;;0.52;;
78610;SDS011;67932;50.474;4.436;2023-07-29T12:44:29;1.10;;;0.60;;
78610;SDS011;67932;50.474;4.436;2023-07-29T12:46:57;1.42;;;0.73;;
78610;SDS011;67932;50.474;4.436;2023-07-29T12:49:23;1.05;;;0.70;;
78610;SDS011;67932;50.474;4.436;2023-07-29T12:51:50;2.13;;;0.75;;
78610;SDS011;67932;50.474;4.436;2023-07-29T12:54:16;0.90;;;0.68;;
78610;SDS011;67932;50.474;4.436;2023-07-29T12:56:42;1.95;;;0.90;;
78610;SDS011;67932;50.474;4.436;2023-07-29T12:59:08;1.73;;;0.70;;
78610;SDS011;67932;50.474;4.436;2023-07-29T13:01:34;1.73;;;0.95;;
78610;SDS011;67932;50.474;4.436;2023-07-29T13:04:01;1.05;;;0.55;;
78610;SDS011;67932;50.474;4.436;2023-07-29T13:06:27;0.82;;;0.47;;
78610;SDS011;67932;50.474;4.436;2023-07-29T13:08:53;0.75;;;0.60;;
78610;SDS011;67932;50.474;4.436;2023-07-29T13:11:19;0.82;;;0.60;;
78610;SDS011;67932;50.474;4.436;2023-07-29T13:13:46;1.15;;;0.60;;
78610;SDS011;67932;50.474;4.436;2023-07-29T13:16:12;1.30;;;0.77;;
78610;SDS011;67932;50.474;4.436;2023-07-29T13:18:38;1.00;;;0.60;;
78610;SDS011;67932;50.474;4.436;2023-07-29T13:21:05;1.15;;;0.68;;
78610;SDS011;67932;50.474;4.436;2023-07-29T13:23:32;2.63;;;0.80;;
78610;SDS011;67932;50.474;4.436;2023-07-29T13:25:58;1.05;;;0.73;;
78610;SDS011;67932;50.474;4.436;2023-07-29T13:28:24;1.35;;;0.90;;
78610;SDS011;67932;50.474;4.436;2023-07-29T13:30:50;1.08;;;0.75;;
78610;SDS011;67932;50.474;4.436;2023-07-29T13:33:17;0.93;;;0.63;;
78610;SDS011;67932;50.474;4.436;2023-07-29T13:35:43;0.63;;;0.63;;
78610;SDS011;67932;50.474;4.436;2023-07-29T13:38:09;1.58;;;0.75;;
78610;SDS011;67932;50.474;4.436;2023-07-29T13:40:36;1.92;;;0.70;;
78610;SDS011;67932;50.474;4.436;2023-07-29T13:43:02;1.73;;;0.80;;
78610;SDS011;67932;50.474;4.436;2023-07-29T13:45:28;2.80;;;0.70;;
78610;SDS011;67932;50.474;4.436;2023-07-29T13:47:55;1.17;;;0.70;;
78610;SDS011;67932;50.474;4.436;2023-07-29T13:50:21;1.25;;;0.70;;
78610;SDS011;67932;50.474;4.436;2023-07-29T13:52:47;0.90;;;0.90;;
78610;SDS011;67932;50.474;4.436;2023-07-29T13:55:14;2.17;;;0.90;;
78610;SDS011;67932;50.474;4.436;2023-07-29T13:57:40;1.08;;;0.68;;
78610;SDS011;67932;50.474;4.436;2023-07-29T14:00:06;0.60;;;0.55;;
78610;SDS011;67932;50.474;4.436;2023-07-29T14:02:33;0.80;;;0.63;;
78610;SDS011;67932;50.474;4.436;2023-07-29T14:04:59;1.27;;;0.70;;
78610;SDS011;67932;50.474;4.436;2023-07-29T14:07:26;1.40;;;0.73;;
78610;SDS011;67932;50.474;4.436;2023-07-29T14:09:52;1.50;;;0.68;;
78610;SDS011;67932;50.474;4.436;2023-07-29T14:12:18;1.48;;;0.80;;
78610;SDS011;67932;50.474;4.436;2023-07-29T14:14:44;1.48;;;0.73;;
78610;SDS011;67932;50.474;4.436;2023-07-29T14:17:10;2.28;;;0.68;;
78610;SDS011;67932;50.474;4.436;2023-07-29T14:19:37;0.93;;;0.80;;
78610;SDS011;67932;50.474;4.436;2023-07-29T14:22:03;1.20;;;0.65;;
78610;SDS011;67932;50.474;4.436;2023-07-29T14:24:30;1.10;;;0.60;;
78610;SDS011;67932;50.474;4.436;2023-07-29T14:26:57;1.25;;;0.70;;
78610;SDS011;67932;50.474;4.436;2023-07-29T14:29:24;1.05;;;0.55;;
78610;SDS011;67932;50.474;4.436;2023-07-29T14:31:51;0.85;;;0.70;;
78610;SDS011;67932;50.474;4.436;2023-07-29T14:34:17;0.73;;;0.55;;
78610;SDS011;67932;50.474;4.436;2023-07-29T14:36:43;1.15;;;0.80;;
78610;SDS011;67932;50.474;4.436;2023-07-29T14:39:09;1.17;;;0.80;;
78610;SDS011;67932;50.474;4.436;2023-07-29T14:41:36;1.48;;;0.75;;
78610;SDS011;67932;50.474;4.436;2023-07-29T14:44:02;1.13;;;0.80;;
78610;SDS011;67932;50.474;4.436;2023-07-29T14:46:29;2.15;;;0.80;;
78610;SDS011;67932;50.474;4.436;2023-07-29T14:48:55;1.15;;;0.77;;
78610;SDS011;67932;50.474;4.436;2023-07-29T14:51:21;1.10;;;0.63;;
78610;SDS011;67932;50.474;4.436;2023-07-29T14:53:48;0.68;;;0.68;;
78610;SDS011;67932;50.474;4.436;2023-07-29T14:56:16;1.92;;;1.10;;
78610;SDS011;67932;50.474;4.436;2023-07-29T14:58:43;3.47;;;1.42;;
78610;SDS011;67932;50.474;4.436;2023-07-29T15:01:09;1.55;;;1.10;;
78610;SDS011;67932;50.474;4.436;2023-07-29T15:03:36;1.48;;;1.20;;
78610;SDS011;67932;50.474;4.436;2023-07-29T15:06:02;1.65;;;1.33;;
78610;SDS011;67932;50.474;4.436;2023-07-29T15:08:28;3.03;;;1.52;;
78610;SDS011;67932;50.474;4.436;2023-07-29T15:10:54;3.05;;;1.30;;
78610;SDS011;67932;50.474;4.436;2023-07-29T15:13:21;2.78;;;1.52;;
78610;SDS011;67932;50.474;4.436;2023-07-29T15:15:47;2.97;;;1.50;;